KMKG/MKG METAR and TAF weather

Enter ICAO airport designator
Station Type Date Time Source
KMKG METAR 2020/04/07 15:55 UTC NOAA

KMKG 071555Z 24007KT 1SM R32/P6000FT BR OVC003 12/11 A2979 RMK AO2 SFC VIS 1 1/4 SLP091 T01170106


Station Type Date Time Source
KMKG Decoded METAR 2020/04/07 15:55 UTC NOAA

MUSKEGON COUNTY AIRPORT, MI, United States (KMKG) 43-10N 086-14W 191M
Apr 07, 2020 - 11:55 AM EDT / 2020.04.07 1555 UTC
Wind: from the WSW (240 degrees) at 8 MPH (7 KT):0
Visibility: 1 mile(s):0
Sky conditions: overcast
Weather: mist
Temperature: 53.1 F (11.7 C)
Dew Point: 51.1 F (10.6 C)
Relative Humidity: 92%
Pressure (altimeter): 29.79 in. Hg (1008 hPa)
ob: KMKG 071555Z 24007KT 1SM R32/P6000FT BR OVC003 12/11 A2979 RMK AO2 SFC VIS 1 1/4 SLP091 T01170106
cycle: 16

Station Type Date Time Source
KMKG TAF 2020/04/07 16:42 UTC NOAA

TAF
AMD KMKG 071541Z 0716/0812 23007KT 3/4SM BR OVC003
FM071800 20010KT 4SM BR BKN005 OVC012
FM072100 21011KT P6SM OVC050
FM080100 24008KT 6SM BR VCTS OVC025CB
FM080400 27007KT 4SM BR BKN004
FM080900 31007KT P6SM SKC

Example: see airport list